Sedona, AZ

1:32 AM MST on October 17, 2019 (GMT -0700)
Sedona

Weather History for KSEZ - August, 2019

Change the Weather History Date:

Saturday, August 3, 2019

  Actual Average Record
Temperature  
Mean Temperature 82 °F -  
Max Temperature 95 °F 96 °F 96 °F (2012)
Min Temperature 69 °F 64 °F 62 °F (2014)
Cooling Degree Days 17    
Growing Degree Days 32 (Base 50)    
Moisture  
Dew Point 56 °F    
Average Humidity 46    
Maximum Humidity 73    
Minimum Humidity 24    
Precipitation  
Precipitation 0.00 in - - ()
Sea Level Pressure  
Sea Level Pressure 30.17 in    
Wind  
Wind Speed 7 mph (ENE)    
Max Wind Speed 22 mph    
Max Gust Speed 30 mph    
Visibility 10 miles    
Events Thunderstorm    
Averages and records for this station are not official NWS values.
T = Trace of Precipitation, MM = Missing Value Source: NWS Daily Summary

Daily Weather History Graph

Daily Weather History Graph

Search for Another Location

Airport or City:

Astronomy

Aug. 03, 2019 Rise Set
Actual Time 5:38 AM MST 7:27 PM MST
Civil Twilight 5:10 AM MST 7:55 PM MST
Nautical Twilight 4:37 AM MST 8:28 PM MST
Astronomical Twilight 4:01 AM MST 9:04 PM MST
Moon 8:30 AM MST (8/3) 9:42 PM MST (8/3)
Length of Visible Light 14h 44m
Length of Day
13h 49m
Waxing Crescent, 10% of the Moon is Illuminated
Aug 3
Waxing Crescent
Aug 7
First Quarter
Aug 15
Full
Aug 23
Last Quarter
Aug 30
New

Hourly Weather History & Observations

Time (MST) Temp. Heat Index Dew Point Humidity Pressure Visibility Wind Dir Wind Speed Gust Speed Precip Events Conditions
12:15 AM 71.6 °F - 55.4 °F 57% 30.19 in 10.0 mi NNE 9.2 mph - N/A   Clear
12:35 AM 71.6 °F - 55.4 °F 57% 30.19 in 10.0 mi NNE 8.1 mph - N/A   Clear
12:55 AM 73.4 °F - 53.6 °F 50% 30.18 in 10.0 mi ENE 6.9 mph - N/A   Clear
1:15 AM 69.8 °F - 60.8 °F 73% 30.17 in 10.0 mi East 4.6 mph - N/A   Clear
1:35 AM 71.6 °F - 57.2 °F 60% 30.17 in 10.0 mi ESE 4.6 mph - N/A   Clear
1:55 AM 69.8 °F - 59.0 °F 68% 30.17 in 10.0 mi Calm Calm - N/A   Clear
2:15 AM 71.6 °F - 59.0 °F 64% 30.17 in 10.0 mi Calm Calm - N/A   Clear
2:35 AM 69.8 °F - 57.2 °F 64% 30.17 in 10.0 mi NNE 3.5 mph - N/A   Clear
2:55 AM 69.8 °F - 55.4 °F 60% 30.17 in 10.0 mi Calm Calm - N/A   Clear
3:15 AM 71.6 °F - 53.6 °F 53% 30.17 in 10.0 mi NNE 8.1 mph - N/A   Clear
3:35 AM 71.6 °F - 55.4 °F 57% 30.17 in 10.0 mi NNE 10.4 mph - N/A   Clear
3:55 AM 71.6 °F - 53.6 °F 53% 30.16 in 10.0 mi NNE 9.2 mph - N/A   Clear
4:15 AM 71.6 °F - 53.6 °F 53% 30.17 in 10.0 mi NNE 9.2 mph - N/A   Clear
4:35 AM 71.6 °F - 51.8 °F 50% 30.17 in 10.0 mi NE 11.5 mph - N/A   Clear
4:55 AM 71.6 °F - 51.8 °F 50% 30.17 in 10.0 mi NE 12.7 mph - N/A   Clear
5:15 AM 71.6 °F - 51.8 °F 50% 30.17 in 10.0 mi NNE 11.5 mph - N/A   Clear
5:35 AM 71.6 °F - 51.8 °F 50% 30.17 in 10.0 mi NE 10.4 mph - N/A   Clear
5:55 AM 71.6 °F - 53.6 °F 53% 30.18 in 10.0 mi NE 3.5 mph - N/A   Clear
6:15 AM 71.6 °F - 51.8 °F 50% 30.18 in 10.0 mi NNE 8.1 mph - N/A   Clear
6:35 AM 71.6 °F - 51.8 °F 50% 30.18 in 10.0 mi NE 12.7 mph - N/A   Clear
6:55 AM 73.4 °F - 51.8 °F 47% 30.18 in 10.0 mi NE 8.1 mph - N/A   Clear
7:15 AM 73.4 °F - 53.6 °F 50% 30.19 in 10.0 mi NE 5.8 mph - N/A   Clear
7:35 AM 75.2 °F - 53.6 °F 47% 30.19 in 10.0 mi NE 5.8 mph - N/A   Clear
7:55 AM 77.0 °F - 55.4 °F 47% 30.20 in 10.0 mi East 4.6 mph - N/A   Clear
8:15 AM 78.8 °F - 53.6 °F 42% 30.20 in 10.0 mi ENE 8.1 mph - N/A   Clear
8:35 AM 78.8 °F - 57.2 °F 47% 30.20 in 10.0 mi East 6.9 mph - N/A   Clear
8:55 AM 80.6 °F 80.5 °F 55.4 °F 42% 30.21 in 10.0 mi Calm Calm - N/A   Clear
9:15 AM 80.6 °F 80.8 °F 57.2 °F 45% 30.20 in 10.0 mi SSE 3.5 mph - N/A   Clear
9:35 AM 80.6 °F 81.1 °F 59.0 °F 48% 30.21 in 10.0 mi ESE 3.5 mph - N/A   Clear
10:15 AM 86.0 °F 85.4 °F 59.0 °F 40% 30.19 in 10.0 mi SE 3.5 mph - N/A   Clear
10:35 AM 87.8 °F 86.1 °F 55.4 °F 33% 30.19 in 10.0 mi SE 4.6 mph - N/A   Clear
10:55 AM 86.0 °F 85.4 °F 59.0 °F 40% 30.19 in 10.0 mi South 4.6 mph - N/A   Clear
11:15 AM 89.6 °F 88.9 °F 59.0 °F 36% 30.19 in 10.0 mi SSE 5.8 mph - N/A   Clear
12:15 PM 91.4 °F 90.7 °F 59.0 °F 34% 30.17 in 10.0 mi SSE 5.8 mph - N/A   Clear
12:35 PM 93.2 °F 92.6 °F 59.0 °F 32% 30.16 in 10.0 mi South 5.8 mph - N/A   Clear
12:55 PM 93.2 °F 92.6 °F 59.0 °F 32% 30.15 in 10.0 mi SSW 4.6 mph - N/A   Clear
1:15 PM 93.2 °F 91.9 °F 57.2 °F 30% 30.14 in 10.0 mi South 6.9 mph - N/A   Clear
2:15 PM 93.2 °F - 51.8 °F 24% 30.13 in 10.0 mi Calm Calm - N/A   Clear
2:35 PM 95.0 °F 92.7 °F 53.6 °F 25% 30.12 in 10.0 mi South 4.6 mph - N/A   Clear
2:55 PM 95.0 °F 92.7 °F 53.6 °F 25% 30.11 in 10.0 mi SSE 4.6 mph - N/A   Clear
3:15 PM 93.2 °F 90.8 °F 53.6 °F 26% 30.12 in 10.0 mi West 17.3 mph 28.8 mph N/A   Clear
3:35 PM 84.2 °F 83.0 °F 55.4 °F 37% 30.12 in 10.0 mi West 13.8 mph 19.6 mph N/A Thunderstorm Scattered Clouds
3:55 PM 82.4 °F 82.0 °F 57.2 °F 42% 30.13 in 10.0 mi WNW 4.6 mph - N/A Thunderstorm Scattered Clouds
4:15 PM 84.2 °F 83.0 °F 55.4 °F 37% 30.13 in 10.0 mi North 6.9 mph - N/A   Clear
4:35 PM 87.8 °F 86.1 °F 55.4 °F 33% 30.13 in 10.0 mi NE 16.1 mph 23.0 mph N/A   Scattered Clouds
4:55 PM 82.4 °F 81.4 °F 53.6 °F 37% 30.14 in 10.0 mi ENE 16.1 mph 24.2 mph N/A   Clear
5:15 PM 80.6 °F 80.5 °F 55.4 °F 42% 30.13 in 10.0 mi ENE 21.9 mph 28.8 mph N/A   Clear
5:35 PM 80.6 °F 80.5 °F 55.4 °F 42% 30.13 in 10.0 mi ENE 18.4 mph 29.9 mph N/A   Clear
5:55 PM 80.6 °F 80.5 °F 55.4 °F 42% 30.13 in 10.0 mi NE 19.6 mph 25.3 mph N/A Thunderstorm Scattered Clouds
6:15 PM 78.8 °F - 55.4 °F 44% 30.13 in 10.0 mi NE 21.9 mph 27.6 mph N/A   Clear
6:35 PM 78.8 °F - 55.4 °F 44% 30.13 in 10.0 mi NE 18.4 mph 25.3 mph N/A   Clear
7:55 PM 78.8 °F - 53.6 °F 42% 30.15 in 10.0 mi NE 12.7 mph 17.3 mph N/A   Clear
8:15 PM 78.8 °F - 51.8 °F 39% 30.17 in 10.0 mi NE 11.5 mph 18.4 mph N/A   Clear
8:35 PM 78.8 °F - 51.8 °F 39% 30.17 in 10.0 mi NE 5.8 mph - N/A   Clear
8:55 PM 78.8 °F - 53.6 °F 42% 30.19 in 10.0 mi Calm Calm - N/A   Clear
9:15 PM 78.8 °F - 55.4 °F 44% 30.21 in 10.0 mi SE 5.8 mph - N/A   Clear
9:35 PM 77.0 °F - 59.0 °F 54% 30.21 in 10.0 mi SE 6.9 mph - N/A   Clear
9:55 PM 77.0 °F - 59.0 °F 54% 30.20 in 10.0 mi Calm Calm - N/A   Scattered Clouds
10:15 PM 77.0 °F - 59.0 °F 54% 30.19 in 10.0 mi NW 3.5 mph - N/A   Scattered Clouds
10:35 PM 77.0 °F - 57.2 °F 50% 30.20 in 10.0 mi Calm Calm - N/A   Clear
10:55 PM 77.0 °F - 59.0 °F 54% 30.20 in 10.0 mi Calm Calm - N/A   Clear
11:15 PM 77.0 °F - 59.0 °F 54% 30.19 in 10.0 mi Calm Calm - N/A   Clear
11:35 PM 75.2 °F - 59.0 °F 57% 30.21 in 10.0 mi Calm Calm - N/A   Clear
11:55 PM 75.2 °F - 59.0 °F 57% 30.21 in 10.0 mi Calm Calm - N/A   Clear